Latest Coastal Weather Observations for Cape Otway

IDT60701

Issued at 8:12 am EST Saturday 23 September 2017 (issued every 10 minutes, with the page automatically refreshed every 10 minutes)

About coastal observations | Map of coastal stations | Coastal observations for TAS | Marine services | Other Formats
Station Details ID: 090015 Name: CAPE OTWAY LIGHTHOUSE Lat: -38.86 Lon: 143.51 Height: 82.0 m
Data from the previous 72 hours. | See also: Recent months at Cape Otway
Date/Time
EST
Temp
°C
Wind Pressure Rain since
9am
mm
Weather Cloud Vis
km
Sea
Height
m
Swell
Dir  Spd
kts
Gust
kts
hPa Trend Height
m
Period
s
Dir
23/08:00am 14.9 WNW 10 13 998.2 - 0.0 - - - - - - -
23/07:30am 14.5 WNW 11 15 998.8 - 0.0 - - - - - - -
23/07:00am 14.3 WNW 9 13 999.0 - 0.0 - - - - - - -
23/06:30am 15.1 W 12 20 998.9 - 0.0 - - - - - - -
23/06:00am 17.3 WNW 11 17 998.9 - 0.0 - - - - - - -
23/05:30am 17.2 NNW 8 11 997.7 - 0.0 - - - - - - -
23/05:00am 16.7 NW 8 11 997.5 - 0.0 - - - - - - -
23/04:30am 17.0 WNW 8 10 997.1 - 0.0 - - - - - - -
23/04:00am 17.1 NW 7 10 997.8 - 0.0 - - - - - - -
23/03:30am 17.5 NW 10 15 998.6 - 0.0 - - - - - - -
23/03:00am 17.9 NW 13 19 999.0 - 0.0 - - - - - - -
23/02:30am 16.3 NW 11 18 999.7 - 0.0 - - - - - - -
23/02:20am 16.7 WNW 14 22 1000.0 - 0.0 - - - - - - -
23/02:00am 21.7 NNW 17 27 999.1 - 0.0 - - - - - - -
23/01:30am 20.9 N 17 27 999.9 - 0.0 - - - - - - -
23/01:01am 20.8 N 19 29 999.9 - 0.0 - - - - - - -
23/01:00am 20.8 N 19 26 999.9 - 0.0 - - - - - - -
23/12:30am 20.7 N 18 26 1000.2 - 0.0 - - - - - - -
23/12:00am 20.6 N 15 23 1000.7 - 0.0 - - - - - - -
 
Date/Time
EST
Temp
°C
Wind Pressure Rain since
9am
mm
Weather Cloud Vis
km
Sea
Height
m
Swell
Dir  Spd
kts
Gust
kts
hPa Trend Height
m
Period
s
Dir
22/11:30pm 20.4 N 15 22 1001.3 - 0.0 - - - - - - -
22/11:00pm 20.3 N 16 22 1001.6 - 0.0 - - - - - - -
22/10:30pm 20.1 N 16 22 1002.0 - 0.0 - - - - - - -
22/10:00pm 20.1 N 15 25 1002.2 - 0.0 - - - - - - -
22/09:58pm 20.1 N 15 25 1002.2 - 0.0 - - - - - - -
22/09:30pm 19.8 N 12 20 1002.6 - 0.0 - - - - - - -
22/09:00pm 19.3 N 10 15 1003.0 - 0.0 - - - - - - -
22/08:30pm 16.6 NNE 5 9 1003.2 - 0.0 - - - - - - -
22/08:00pm 14.1 ENE 8 9 1003.0 - 0.0 - - - - - - -
22/07:30pm 13.4 NE 11 14 1003.4 - 0.0 - - - - - - -
22/07:00pm 12.9 ENE 7 10 1004.5 - 0.0 - - - - - - -
22/06:30pm 12.9 NE 10 12 1004.0 - 0.0 - - - - - - -
22/06:00pm 13.4 ENE 8 13 1004.0 - 0.0 - - - - - - -
22/05:30pm 13.5 E 11 16 1003.4 - 0.0 - - - - - - -
22/05:00pm 14.1 E 8 13 1003.9 - 0.0 - - - - - - -
22/04:30pm 14.7 ENE 11 16 1003.8 - 0.0 - - - - - - -
22/04:00pm 14.8 ENE 11 15 1004.4 - 0.0 - - - - - - -
22/03:30pm 15.1 ENE 9 13 1004.7 - 0.0 - - - - - - -
22/03:00pm 15.3 ENE 9 14 1005.1 - 0.0 - - - - - - -
22/02:30pm 14.3 ENE 10 13 1005.4 - 0.0 - - - - - - -
22/02:00pm 14.3 ENE 11 15 1005.3 - 0.0 - - - - - - -
22/01:30pm 14.4 E 11 14 1005.6 - 0.0 - - - - - - -
22/01:00pm 15.2 ENE 9 13 1006.4 - 0.0 - - - - - - -
22/12:30pm 14.2 E 8 13 1006.9 - 0.0 - - - - - - -
22/12:00pm 14.6 E 7 11 1007.2 - 0.0 - - - - - - -
22/11:30am 15.1 E 7 10 1007.7 - 0.0 - - - - - - -
22/11:00am 14.4 E 9 12 1008.3 - 0.0 - - - - - - -
22/10:30am 13.9 ESE 11 12 1008.5 - 0.0 - - - - - - -
22/10:00am 13.9 ESE 8 10 1008.8 - 0.0 - - - - - - -
22/09:30am 13.8 E 6 8 1009.0 - 0.0 - - - - - - -
22/09:00am 13.4 ESE 6 9 1009.0 - 0.0 - - - - - - -
22/08:30am 12.9 ENE 4 6 1009.4 - 0.0 - - - - - - -
22/08:00am 11.9 E 4 6 1009.1 - 0.0 - - - - - - -
22/07:30am 10.8 NNE 3 4 1009.2 - 0.0 - - - - - - -
22/07:00am 9.3 NE 6 7 1008.7 - 0.0 - - - - - - -
22/06:30am 9.1 NE 5 6 1009.2 - 0.0 - - - - - - -
22/06:00am 8.4 NNE 6 7 1009.5 - 0.0 - - - - - - -
22/05:30am 8.7 N 8 9 1009.4 - 0.0 - - - - - - -
22/05:00am 8.6 N 8 9 1009.4 - 0.0 - - - - - - -
22/04:30am 8.3 N 8 9 1009.4 - 0.0 - - - - - - -
22/04:00am 8.2 N 8 9 1009.6 - 0.0 - - - - - - -
22/03:30am 8.2 N 7 9 1009.7 - 0.0 - - - - - - -
22/03:00am 8.3 N 8 9 1009.8 - 0.0 - - - - - - -
22/02:30am 8.5 N 7 8 1010.2 - 0.0 - - - - - - -
22/02:00am 8.7 N 7 9 1010.5 - 0.0 - - - - - - -
22/01:30am 8.9 N 7 9 1010.8 - 0.0 - - - - - - -
22/01:00am 9.6 N 7 9 1011.2 - 0.0 - - - - - - -
22/12:30am 11.4 W 7 9 1011.2 - 0.0 - - - - - - -
22/12:00am 11.6 W 9 13 1010.8 - 0.0 - - - - - - -
 
Date/Time
EST
Temp
°C
Wind Pressure Rain since
9am
mm
Weather Cloud Vis
km
Sea
Height
m
Swell
Dir  Spd
kts
Gust
kts
hPa Trend Height
m
Period
s
Dir
21/11:30pm 11.6 W 9 13 1011.4 - 0.0 - - - - - - -
21/11:00pm 11.7 W 11 14 1011.5 - 0.0 - - - - - - -
21/10:30pm 11.7 W 10 14 1011.7 - 0.0 - - - - - - -
21/10:00pm 11.8 W 10 14 1011.4 - 0.0 - - - - - - -
21/09:30pm 12.1 W 11 15 1011.4 - 0.0 - - - - - - -
21/09:00pm 12.0 W 10 14 1011.3 - 0.0 - - - - - - -
21/08:30pm 12.2 W 10 13 1010.9 - 0.0 - - - - - - -
21/08:00pm 12.2 W 11 14 1010.9 - 0.0 - - - - - - -
21/07:30pm 12.3 W 11 14 1010.7 - 0.0 - - - - - - -
21/07:00pm 12.6 W 9 12 1010.3 - 0.0 - - - - - - -
21/06:30pm 12.5 W 12 17 1010.2 - 0.0 - - - - - - -
21/06:00pm 12.6 W 11 14 1009.9 - 0.0 - - - - - - -
21/05:30pm 12.9 W 11 14 1009.5 - 0.0 - - - - - - -
21/05:00pm 13.0 W 11 15 1009.0 - 0.0 - - - - - - -
21/04:30pm 13.2 WNW 9 13 1008.8 - 0.0 - - - - - - -
21/04:00pm 13.4 WNW 9 15 1008.6 - 0.0 - - - - - - -
21/03:30pm 13.6 W 11 15 1008.3 - 0.0 - - - - - - -
21/03:00pm 13.9 W 11 17 1008.0 - 0.0 - - - - - - -
21/02:30pm 14.8 WNW 13 20 1007.8 - 0.0 - - - - - - -
21/02:00pm 15.8 WNW 13 19 1007.5 - 0.0 - - - - - - -
21/01:30pm 15.3 W 17 25 1007.0 - 0.0 - - - - - - -
21/01:00pm 16.8 WNW 15 25 1007.0 - 0.0 - - - - - - -
21/12:30pm 18.1 WNW 17 27 1006.8 - 0.0 - - - - - - -
21/12:00pm 18.5 NW 15 26 1006.8 - 0.0 - - - - - - -
21/11:58am 18.2 NW 15 25 1006.7 - 0.0 - - - - - - -
21/11:30am 18.0 NW 14 24 1006.6 - 0.0 - - - - - - -
21/11:00am 18.8 NNW 15 26 1006.7 - 0.0 - - - - - - -
21/10:30am 18.9 NNW 19 29 1006.6 - 0.0 - - - - - - -
21/10:06am 18.8 NNW 15 25 1006.8 - 0.0 - - - - - - -
21/10:00am 18.5 NNW 18 25 1006.8 - 0.0 - - - - - - -
21/09:30am 18.5 N 19 31 1006.6 - 0.0 - - - - - - -
21/09:00am 16.9 N 21 32 1006.8 - 0.0 - - - - - - -
21/08:33am 16.5 N 23 35 1006.9 - 0.0 - - - - - - -
21/08:30am 16.3 N 22 31 1006.7 - 0.0 - - - - - - -
21/08:00am 16.0 N 18 29 1007.2 - 0.0 - - - - - - -
21/07:30am 16.3 N 22 33 1007.5 - 0.0 - - - - - - -
21/07:00am 16.7 N 21 33 1007.5 - 0.0 - - - - - - -
21/06:30am 16.6 N 23 37 1007.1 - 0.0 - - - - - - -
21/06:00am 16.0 N 21 36 1006.9 - 0.0 - - - - - - -
21/05:30am 15.7 N 24 38 1007.1 - 0.0 - - - - - - -
21/05:00am 15.9 N 23 39 1007.1 - 0.0 - - - - - - -
21/04:30am 15.9 N 26 37 1007.3 - 0.0 - - - - - - -
21/04:00am 15.5 N 23 39 1007.7 - 0.0 - - - - - - -
21/03:30am 15.6 N 25 36 1008.0 - 0.0 - - - - - - -
21/03:00am 15.8 N 22 32 1008.4 - 0.0 - - - - - - -
21/02:30am 15.6 N 21 31 1008.8 - 0.0 - - - - - - -
21/02:00am 15.6 N 21 32 1009.3 - 0.0 - - - - - - -
21/01:30am 15.6 N 20 31 1009.8 - 0.0 - - - - - - -
21/01:02am 15.4 N 16 27 1010.6 - 0.0 - - - - - - -
21/01:00am 15.4 N 16 25 1010.7 - 0.0 - - - - - - -
21/12:49am 15.2 N 16 26 1010.9 - 0.0 - - - - - - -
21/12:30am 14.9 N 15 21 1011.6 - 0.0 - - - - - - -
21/12:00am 14.8 N 10 16 1012.2 - 0.0 - - - - - - -
 
Date/Time
EST
Temp
°C
Wind Pressure Rain since
9am
mm
Weather Cloud Vis
km
Sea
Height
m
Swell
Dir  Spd
kts
Gust
kts
hPa Trend Height
m
Period
s
Dir
20/11:30pm 15.3 N 9 17 1012.4 - 0.0 - - - - - - -
20/11:00pm 14.7 N 5 9 1013.1 - 0.0 - - - - - - -
20/10:30pm 14.8 N 7 13 1013.3 - 0.0 - - - - - - -
20/10:00pm 15.1 N 11 16 1013.2 - 0.0 - - - - - - -
20/09:30pm 15.2 NNE 9 14 1013.7 - 0.0 - - - - - - -
20/09:00pm 14.6 N 10 16 1014.4 - 0.0 - - - - - - -
20/08:30pm 13.9 NW 7 11 1014.8 - 0.0 - - - - - - -
20/08:00pm 13.7 W 6 8 1014.8 - 0.0 - - - - - - -
20/07:30pm 12.7 NNW 3 6 1014.3 - 0.0 - - - - - - -
20/07:00pm 13.8 N 7 11 1013.4 - 0.0 - - - - - - -
20/06:30pm 13.8 NW 5 8 1014.0 - 0.0 - - - - - - -
20/06:00pm 13.4 WNW 4 8 1014.3 - 0.0 - - - - - - -
20/05:30pm 13.2 ENE 3 4 1014.1 - 0.0 - - - - - - -
20/05:00pm 13.7 SW 3 6 1014.1 - 0.0 - - - - - - -
20/04:30pm 13.4 E 4 6 1014.2 - 0.0 - - - - - - -
20/04:00pm 13.9 SE 5 5 1014.7 - 0.0 - - - - - - -
20/03:30pm 14.7 SSE 3 5 1014.7 - 0.0 - - - - - - -
20/03:00pm 14.3 SE 5 6 1014.7 - 0.0 - - - - - - -
20/02:30pm 14.2 E 8 11 1014.0 - 0.0 - - - - - - -
20/02:00pm 16.8 NE 6 10 1014.9 - 0.0 - - - - - - -
20/01:30pm 17.2 NW 9 15 1015.6 - 0.0 - - - - - - -
20/01:00pm 16.9 WNW 9 17 1016.2 - 0.0 - - - - - - -
20/12:30pm 17.1 N 8 13 1016.1 - 0.0 - - - - - - -
20/12:00pm 16.3 NW 9 16 1016.5 - 0.0 - - - - - - -
20/11:30am 14.4 WNW 13 21 1017.3 - 0.0 - - - - - - -
20/11:00am 13.8 NW 12 19 1018.0 - 0.0 - - - - - - -
20/10:30am 13.1 WNW 12 18 1018.3 - 0.0 - - - - - - -
20/10:00am 12.7 NW 12 18 1019.3 - 0.0 - - - - - - -
20/09:30am 11.9 NW 7 12 1019.6 - 0.0 - - - - - - -
20/09:00am 11.4 WNW 5 9 1020.1 - 0.0 - - - - - - -
20/08:30am 10.2 N 7 10 1019.2 - 0.0 - - - - - - -

Other Formats:

Comma delimited format used in spreadsheet applications
http://www.bom.gov.au/fwo/IDT60701/IDT60701.94842.axf

JavaScript Object Notation format (JSON) in row-major order
http://www.bom.gov.au/fwo/IDT60701/IDT60701.94842.json